createdAt,value
2023-01-03T00:00:17.392Z,6.88
2023-01-03T00:03:20.511Z,6.90
2023-01-03T00:06:29.792Z,6.85
2023-01-03T00:09:32.733Z,6.84
2023-01-03T00:12:37.350Z,6.84
2023-01-03T00:15:40.244Z,6.81
2023-01-03T00:18:43.723Z,6.79
2023-01-03T00:21:46.684Z,6.87
2023-01-03T00:24:49.557Z,6.79
2023-01-03T00:27:52.460Z,6.75
2023-01-03T00:30:55.561Z,6.71
2023-01-03T00:33:58.574Z,6.71
2023-01-03T00:37:01.724Z,6.70
2023-01-03T00:40:05.131Z,6.64
2023-01-03T00:43:27.009Z,6.69
2023-01-03T00:46:30.909Z,6.62
2023-01-03T00:49:33.726Z,6.53
2023-01-03T00:52:36.639Z,6.54
2023-01-03T00:55:39.287Z,6.53
2023-01-03T00:58:43.022Z,6.54
2023-01-03T01:01:49.372Z,6.67
2023-01-03T01:04:53.536Z,6.67
2023-01-03T01:07:56.677Z,6.61
2023-01-03T01:11:03.336Z,6.60
2023-01-03T01:14:19.860Z,6.59
2023-01-03T01:17:23.232Z,6.64
2023-01-03T01:20:27.770Z,6.64
2023-01-03T01:23:30.586Z,6.64
2023-01-03T01:26:33.249Z,6.67
2023-01-03T01:29:38.008Z,6.68
2023-01-03T01:32:40.909Z,6.70
2023-01-03T01:35:43.846Z,6.73
2023-01-03T01:38:48.008Z,6.78
2023-01-03T01:42:19.012Z,6.77
2023-01-03T01:45:22.241Z,6.82
2023-01-03T01:48:25.220Z,6.85
2023-01-03T01:51:32.456Z,6.85
2023-01-03T01:54:35.542Z,6.75
2023-01-03T01:57:38.867Z,6.72
2023-01-03T02:00:44.071Z,6.71
2023-01-03T02:03:56.454Z,6.70
2023-01-03T02:07:01.060Z,6.66
2023-01-03T02:10:04.574Z,6.68
2023-01-03T02:13:38.196Z,6.63
2023-01-03T02:17:23.160Z,6.64
2023-01-03T02:20:34.207Z,6.67
2023-01-03T02:23:58.576Z,6.70
2023-01-03T02:27:36.545Z,6.64
2023-01-03T02:30:46.400Z,6.52
2023-01-03T02:33:59.792Z,6.44
2023-01-03T02:37:05.204Z,6.43
2023-01-03T02:40:19.563Z,6.45
2023-01-03T02:43:30.740Z,6.44
2023-01-03T02:46:39.887Z,6.33
2023-01-03T02:49:53.112Z,6.34
2023-01-03T02:53:03.491Z,6.45
2023-01-03T02:56:11.622Z,6.38
2023-01-03T02:59:21.991Z,6.45
2023-01-03T03:02:29.362Z,6.53
2023-01-03T03:05:48.091Z,6.42
2023-01-03T03:08:50.672Z,6.45
2023-01-03T03:12:12.746Z,6.47
2023-01-03T03:15:19.286Z,6.46
2023-01-03T03:18:40.312Z,6.44
2023-01-03T03:22:01.503Z,6.39
2023-01-03T03:25:10.812Z,6.36
2023-01-03T03:28:37.175Z,6.36
2023-01-03T03:31:43.899Z,6.31
2023-01-03T03:34:46.832Z,6.28
2023-01-03T03:37:52.381Z,6.30
2023-01-03T03:41:57.745Z,6.31
2023-01-03T03:45:14.991Z,6.27
2023-01-03T03:48:31.486Z,6.23
2023-01-03T03:51:37.558Z,6.17
2023-01-03T03:54:45.060Z,6.02
2023-01-03T03:57:56.382Z,5.82
2023-01-03T04:01:02.312Z,5.72
2023-01-03T04:04:15.553Z,5.63
2023-01-03T04:07:18.319Z,5.56
2023-01-03T04:10:23.797Z,5.51
2023-01-03T04:13:26.641Z,5.32
2023-01-03T04:16:29.750Z,5.22
2023-01-03T04:19:32.794Z,5.12
2023-01-03T04:22:35.892Z,5.07
2023-01-03T04:25:38.505Z,5.03
2023-01-03T04:28:41.376Z,5.01
2023-01-03T04:31:44.111Z,4.89
2023-01-03T04:34:47.208Z,4.82
2023-01-03T04:37:49.757Z,4.68
2023-01-03T04:40:53.475Z,4.73
2023-01-03T04:44:02.303Z,4.62
2023-01-03T04:47:05.244Z,4.49
2023-01-03T04:50:09.678Z,4.37
2023-01-03T04:53:16.029Z,4.35
2023-01-03T04:56:23.233Z,4.31
2023-01-03T04:59:26.220Z,4.32
2023-01-03T05:02:29.283Z,4.33
2023-01-03T05:05:32.316Z,4.33
2023-01-03T05:08:36.108Z,4.22
2023-01-03T05:11:39.148Z,4.20
2023-01-03T05:14:41.827Z,4.20
2023-01-03T05:17:44.701Z,4.16
2023-01-03T05:21:10.454Z,4.07
2023-01-03T05:24:32.305Z,4.04
2023-01-03T05:27:34.873Z,4.08
2023-01-03T05:30:50.702Z,4.07
2023-01-03T05:33:53.255Z,4.02
2023-01-03T05:36:56.264Z,4.07
2023-01-03T05:39:58.979Z,4.05
2023-01-03T05:43:02.499Z,4.00
2023-01-03T05:46:05.205Z,4.02
2023-01-03T05:49:08.225Z,4.03
2023-01-03T05:52:10.925Z,4.06
2023-01-03T05:55:13.949Z,4.05
2023-01-03T05:58:16.564Z,4.01
2023-01-03T06:01:19.978Z,3.98
2023-01-03T06:04:23.038Z,4.04
2023-01-03T06:07:25.766Z,4.03
2023-01-03T06:10:30.327Z,3.97
2023-01-03T06:13:33.342Z,3.91
2023-01-03T06:16:54.521Z,3.99
2023-01-03T06:19:59.894Z,4.20
2023-01-03T06:23:02.918Z,4.43
2023-01-03T06:26:05.754Z,4.59
2023-01-03T06:29:08.764Z,4.61
2023-01-03T06:32:11.495Z,4.51
2023-01-03T06:35:14.516Z,4.48
2023-01-03T06:38:17.056Z,4.61
2023-01-03T06:41:20.431Z,4.82
2023-01-03T06:44:23.494Z,5.09
2023-01-03T06:47:46.699Z,5.27
2023-01-03T06:51:08.436Z,5.37
2023-01-03T06:54:22.227Z,5.53
2023-01-03T06:57:26.641Z,5.65
2023-01-03T07:00:32.424Z,5.73
2023-01-03T07:03:35.060Z,5.83
2023-01-03T07:06:38.519Z,5.89
2023-01-03T07:09:41.205Z,5.98
2023-01-03T07:13:02.862Z,6.07
2023-01-03T07:16:05.586Z,6.17
2023-01-03T07:19:11.761Z,6.28
2023-01-03T07:22:14.352Z,6.31
2023-01-03T07:25:17.519Z,6.52
2023-01-03T07:28:20.119Z,6.53
2023-01-03T07:31:23.177Z,6.60
2023-01-03T07:34:26.097Z,6.76
2023-01-03T07:37:29.015Z,6.83
2023-01-03T07:40:31.716Z,6.91
2023-01-03T07:43:38.458Z,6.95
2023-01-03T07:46:41.133Z,7.02
2023-01-03T07:49:44.046Z,7.11
2023-01-03T07:52:46.972Z,7.25
2023-01-03T07:55:50.003Z,7.29
2023-01-03T07:58:52.773Z,7.30
2023-01-03T08:01:55.704Z,7.38
2023-01-03T08:04:59.142Z,7.42
2023-01-03T08:08:03.273Z,7.48
2023-01-03T08:11:25.325Z,7.60
2023-01-03T08:14:27.999Z,7.72
2023-01-03T08:17:30.932Z,7.80
2023-01-03T08:20:34.010Z,7.80
2023-01-03T08:23:37.339Z,7.96
2023-01-03T08:26:39.973Z,7.99
2023-01-03T08:29:42.931Z,8.00
2023-01-03T08:32:45.768Z,7.94
2023-01-03T08:35:55.740Z,8.03
2023-01-03T08:39:04.633Z,8.11
2023-01-03T08:42:09.991Z,8.10
2023-01-03T08:45:17.707Z,8.03
2023-01-03T08:48:22.811Z,8.02
2023-01-03T08:51:26.811Z,8.05
2023-01-03T08:54:29.839Z,8.00
2023-01-03T08:57:32.499Z,7.97
2023-01-03T09:00:37.314Z,8.02
2023-01-03T09:03:40.651Z,8.03
2023-01-03T09:06:43.814Z,8.03
2023-01-03T09:09:46.478Z,8.03
2023-01-03T09:12:49.533Z,8.10
2023-01-03T09:16:00.872Z,8.15
2023-01-03T09:19:05.819Z,8.14
2023-01-03T09:22:08.481Z,8.24
2023-01-03T09:25:11.403Z,8.15
2023-01-03T09:28:14.204Z,8.26
2023-01-03T09:31:18.988Z,8.37
2023-01-03T09:34:21.766Z,8.46
2023-01-03T09:37:24.718Z,8.67
2023-01-03T09:40:37.072Z,8.65
2023-01-03T09:43:43.878Z,8.64
2023-01-03T09:46:46.607Z,8.60
2023-01-03T09:50:26.792Z,8.73
2023-01-03T09:53:41.816Z,8.80
2023-01-03T09:57:03.317Z,8.98
2023-01-03T10:00:45.728Z,9.04
2023-01-03T10:03:56.493Z,9.18
2023-01-03T10:07:17.802Z,9.00
2023-01-03T10:10:51.420Z,9.10
2023-01-03T10:14:22.203Z,9.17
2023-01-03T10:18:03.244Z,9.28
2023-01-03T10:21:26.353Z,9.33
2023-01-03T10:24:32.201Z,9.46
2023-01-03T10:27:41.454Z,9.61
2023-01-03T10:31:05.306Z,9.50
2023-01-03T10:34:13.072Z,9.61
2023-01-03T10:37:19.183Z,9.80
2023-01-03T10:40:46.952Z,9.86
2023-01-03T10:44:02.016Z,9.45
2023-01-03T10:47:16.325Z,9.25
2023-01-03T10:50:24.350Z,9.46
2023-01-03T10:53:28.802Z,9.34
2023-01-03T10:56:35.865Z,9.42
2023-01-03T10:59:49.332Z,9.39
2023-01-03T11:02:53.886Z,9.50
2023-01-03T11:05:56.626Z,9.48
2023-01-03T11:09:04.310Z,9.66
2023-01-03T11:12:37.772Z,9.67
2023-01-03T11:15:42.612Z,9.97
2023-01-03T11:19:03.901Z,10.15
2023-01-03T11:22:37.638Z,10.07
2023-01-03T11:25:57.337Z,9.99
2023-01-03T11:29:05.241Z,10.22
2023-01-03T11:32:15.593Z,10.46
2023-01-03T11:35:39.747Z,10.54
2023-01-03T11:39:26.540Z,10.40
2023-01-03T11:42:39.398Z,10.38
2023-01-03T11:46:11.369Z,10.40
2023-01-03T11:49:54.065Z,10.46
2023-01-03T11:53:02.679Z,10.36
2023-01-03T11:56:24.673Z,10.25
2023-01-03T12:00:09.288Z,10.31
2023-01-03T12:03:36.055Z,10.39
2023-01-03T12:06:59.512Z,10.17
2023-01-03T12:10:22.707Z,10.28
2023-01-03T12:13:44.352Z,10.52
2023-01-03T12:17:25.699Z,10.61
2023-01-03T12:20:39.041Z,10.69
2023-01-03T12:23:50.794Z,10.76
2023-01-03T12:26:56.906Z,10.42
2023-01-03T12:30:15.300Z,10.32
2023-01-03T12:33:46.557Z,9.87
2023-01-03T12:37:03.506Z,9.60
2023-01-03T12:40:28.235Z,9.55
2023-01-03T12:44:00.506Z,9.43
2023-01-03T12:47:05.785Z,9.27
2023-01-03T12:50:20.833Z,9.27
2023-01-03T12:53:32.519Z,9.22
2023-01-03T12:57:02.976Z,9.16
2023-01-03T13:00:06.139Z,9.04
2023-01-03T13:03:26.684Z,9.04
2023-01-03T13:06:41.042Z,8.97
2023-01-03T13:09:51.524Z,8.97
2023-01-03T13:12:57.066Z,8.92
2023-01-03T13:16:00.275Z,8.82
2023-01-03T13:19:21.699Z,8.75
2023-01-03T13:22:53.668Z,8.91
2023-01-03T13:26:05.937Z,8.79
2023-01-03T13:29:43.693Z,8.68
2023-01-03T13:33:06.982Z,8.62
2023-01-03T13:36:10.953Z,8.53
2023-01-03T13:39:52.155Z,8.32
2023-01-03T13:43:04.582Z,8.23
2023-01-03T13:46:31.665Z,8.16
2023-01-03T13:49:36.490Z,8.08
2023-01-03T13:53:03.989Z,8.03
2023-01-03T13:56:31.924Z,7.89
2023-01-03T13:59:42.687Z,7.77
2023-01-03T14:03:10.602Z,7.72
2023-01-03T14:06:51.540Z,7.66
2023-01-03T14:10:16.764Z,7.80
2023-01-03T14:13:48.164Z,7.75
2023-01-03T14:16:57.788Z,7.63
2023-01-03T14:20:11.152Z,7.63
2023-01-03T14:26:42.273Z,7.49
2023-01-03T14:29:50.985Z,7.56
2023-01-03T14:32:54.449Z,7.57
2023-01-03T14:36:05.388Z,7.53
2023-01-03T14:39:22.245Z,7.53
2023-01-03T14:42:25.286Z,7.54
2023-01-03T14:45:28.866Z,7.51
2023-01-03T14:48:32.153Z,7.49
2023-01-03T14:51:36.963Z,7.58
2023-01-03T14:54:44.955Z,7.55
2023-01-03T14:57:52.575Z,7.59
2023-01-03T15:00:57.697Z,7.60
2023-01-03T15:04:01.594Z,7.58
2023-01-03T15:07:13.117Z,7.54
2023-01-03T15:10:35.898Z,7.56
2023-01-03T15:13:56.539Z,7.52
2023-01-03T15:17:09.755Z,7.47
2023-01-03T15:20:18.630Z,7.49
2023-01-03T15:23:41.919Z,7.38
2023-01-03T15:26:47.431Z,7.36
2023-01-03T15:29:50.443Z,7.39
2023-01-03T15:33:04.955Z,7.49
2023-01-03T15:36:18.429Z,7.73
2023-01-03T15:39:25.948Z,7.73
2023-01-03T15:42:57.999Z,7.67
2023-01-03T15:46:11.409Z,7.69
2023-01-03T15:49:16.982Z,7.66
2023-01-03T15:52:19.635Z,7.63
2023-01-03T15:55:22.635Z,7.71
2023-01-03T15:58:26.267Z,7.69
2023-01-03T16:01:30.649Z,7.66
2023-01-03T16:04:34.046Z,7.69
2023-01-03T16:07:36.700Z,7.63
2023-01-03T16:10:40.367Z,7.65
2023-01-03T16:13:46.569Z,7.64
2023-01-03T16:16:53.843Z,7.66
2023-01-03T16:20:02.238Z,7.62
2023-01-03T16:23:05.445Z,7.67
2023-01-03T16:26:08.632Z,7.76
2023-01-03T16:29:12.595Z,7.73
2023-01-03T16:32:30.168Z,7.74
2023-01-03T16:35:33.189Z,7.80
2023-01-03T16:38:36.364Z,7.74
2023-01-03T16:41:39.514Z,7.74
2023-01-03T16:44:49.323Z,7.85
2023-01-03T16:47:52.667Z,7.79
2023-01-03T16:50:56.142Z,7.78
2023-01-03T16:54:00.400Z,7.84
2023-01-03T16:57:03.062Z,7.87
2023-01-03T17:00:34.478Z,7.88
2023-01-03T17:03:41.767Z,7.97
2023-01-03T17:06:45.669Z,7.91
2023-01-03T17:09:50.322Z,7.88
2023-01-03T17:12:54.650Z,7.92
2023-01-03T17:16:00.774Z,7.94
2023-01-03T17:19:03.843Z,7.89
2023-01-03T17:22:07.247Z,7.80
2023-01-03T17:25:11.553Z,7.82
2023-01-03T17:28:14.368Z,7.82
2023-01-03T17:31:21.322Z,7.84
2023-01-03T17:34:30.447Z,7.80
2023-01-03T17:37:51.432Z,7.74
2023-01-03T17:40:58.250Z,7.69
2023-01-03T17:44:01.202Z,7.73
2023-01-03T17:47:48.635Z,7.66
2023-01-03T17:50:51.876Z,7.65
2023-01-03T17:53:55.737Z,7.69
2023-01-03T17:56:59.460Z,7.64
2023-01-03T18:00:02.445Z,7.66
2023-01-03T18:03:17.222Z,7.65
2023-01-03T18:06:24.109Z,7.61
2023-01-03T18:09:28.422Z,7.59
2023-01-03T18:12:34.183Z,7.62
2023-01-03T18:15:36.870Z,7.61
2023-01-03T18:18:40.062Z,7.57
2023-01-03T18:21:42.948Z,7.48
2023-01-03T18:24:46.103Z,7.45
2023-01-03T18:27:59.414Z,7.36
2023-01-03T18:31:03.624Z,7.37
2023-01-03T18:34:06.520Z,7.33
2023-01-03T18:37:10.040Z,7.30
2023-01-03T18:40:23.501Z,7.35
2023-01-03T18:43:26.549Z,7.28
2023-01-03T18:46:29.888Z,7.24
2023-01-03T18:49:33.206Z,7.26
2023-01-03T18:52:39.331Z,7.30
2023-01-03T18:55:43.233Z,7.24
2023-01-03T18:58:46.097Z,7.25
2023-01-03T19:01:49.176Z,7.19
2023-01-03T19:04:52.184Z,7.19
2023-01-03T19:07:55.323Z,7.16
2023-01-03T19:11:06.283Z,7.13
2023-01-03T19:14:11.648Z,7.11
2023-01-03T19:17:18.014Z,7.09
2023-01-03T19:20:26.831Z,7.10
2023-01-03T19:23:29.952Z,7.12
2023-01-03T19:26:34.557Z,7.16
2023-01-03T19:29:38.296Z,7.13
2023-01-03T19:32:41.542Z,7.10
2023-01-03T19:35:44.707Z,7.16
2023-01-03T19:38:48.564Z,7.12
2023-01-03T19:42:14.477Z,7.09
2023-01-03T19:45:23.997Z,7.08
2023-01-03T19:48:27.647Z,7.09
2023-01-03T19:51:30.515Z,7.09
2023-01-03T19:54:33.309Z,7.07
2023-01-03T19:57:36.912Z,7.11
2023-01-03T20:00:42.847Z,7.18
2023-01-03T20:03:46.381Z,7.14
2023-01-03T20:06:49.489Z,7.12
2023-01-03T20:09:52.461Z,7.09
2023-01-03T20:12:57.739Z,7.07
2023-01-03T20:16:02.037Z,7.04
2023-01-03T20:19:05.100Z,7.05
2023-01-03T20:22:19.758Z,7.06
2023-01-03T20:25:33.921Z,7.04
2023-01-03T20:28:37.346Z,7.01
2023-01-03T20:31:40.180Z,6.96
2023-01-03T20:34:43.279Z,7.01
2023-01-03T20:37:50.445Z,7.00
2023-01-03T20:40:56.235Z,6.98
2023-01-03T20:43:59.029Z,7.02
2023-01-03T20:47:02.083Z,7.04
2023-01-03T20:50:07.821Z,7.02
2023-01-03T20:53:20.567Z,6.96
2023-01-03T20:56:25.806Z,7.00
2023-01-03T20:59:29.253Z,7.00
2023-01-03T21:02:32.424Z,6.95
2023-01-03T21:05:36.763Z,6.89
2023-01-03T21:08:58.130Z,6.91
2023-01-03T21:12:01.367Z,6.92
2023-01-03T21:15:04.455Z,7.02
2023-01-03T21:18:10.137Z,7.00
2023-01-03T21:21:21.279Z,6.98
2023-01-03T21:24:24.535Z,6.95
2023-01-03T21:27:27.307Z,6.96
2023-01-03T21:30:32.751Z,6.94
2023-01-03T21:33:35.341Z,6.98
2023-01-03T21:36:38.835Z,6.99
2023-01-03T21:39:41.458Z,6.97
2023-01-03T21:43:04.423Z,6.98
2023-01-03T21:46:07.610Z,6.98
2023-01-03T21:49:10.633Z,7.00
2023-01-03T21:52:13.317Z,7.00
2023-01-03T21:55:17.335Z,6.95
2023-01-03T21:58:21.993Z,6.97
2023-01-03T22:01:25.658Z,7.01
2023-01-03T22:04:28.840Z,6.87
2023-01-03T22:07:31.663Z,6.85
2023-01-03T22:10:37.136Z,6.83
2023-01-03T22:13:39.757Z,6.79
2023-01-03T22:16:42.737Z,6.85
2023-01-03T22:19:45.403Z,6.90
2023-01-03T22:22:48.848Z,6.86
2023-01-03T22:25:51.452Z,6.94
2023-01-03T22:28:54.390Z,6.91
2023-01-03T22:31:57.120Z,6.96
2023-01-03T22:35:00.102Z,6.94
2023-01-03T22:38:02.660Z,7.08
2023-01-03T22:41:17.219Z,7.23
2023-01-03T22:44:19.916Z,7.27
2023-01-03T22:47:22.823Z,7.28
2023-01-03T22:50:27.113Z,7.26
2023-01-03T22:53:30.668Z,7.11
2023-01-03T22:56:33.182Z,7.05
2023-01-03T22:59:36.028Z,7.14
2023-01-03T23:02:41.773Z,7.13
2023-01-03T23:05:45.278Z,7.12
2023-01-03T23:08:51.528Z,7.16
2023-01-03T23:12:13.048Z,7.12
2023-01-03T23:15:15.655Z,7.00
2023-01-03T23:18:18.539Z,6.93
2023-01-03T23:21:22.511Z,7.01
2023-01-03T23:24:25.567Z,6.99
2023-01-03T23:27:28.800Z,7.01
2023-01-03T23:30:36.793Z,6.97
2023-01-03T23:33:39.543Z,6.86
2023-01-03T23:36:43.368Z,6.74
2023-01-03T23:39:46.193Z,6.70
2023-01-03T23:42:49.874Z,6.61
2023-01-03T23:45:52.739Z,6.54
2023-01-03T23:48:56.867Z,6.43
2023-01-03T23:51:59.712Z,6.44
2023-01-03T23:55:10.177Z,6.43
2023-01-03T23:58:14.674Z,6.37
